Portada
METAR-TAF:

METAR-TAF

Aeropuertos :

Aeropuerto de Logroño-Agoncillo

Logroño, España

latitud: 42-27N, longitud: 002-20W, altitud: 353 m

Observación

El informe se hizo hace 39 minutos, a las 15:00 UTC
Viento 8 kt del norte-noroeste, variando entre oeste-suroeste y noreste
Temperatura 22°C
Humedad 60%
Presión 1022 hPa
Visibilidad 10 km o más
Escasas nubes a una altura de 4000 ft
Nubes dispersas a una altura de 6000 ft

METAR: LELO 171500Z 33008KT 250V050 9999 FEW040 SCT060 22/14 Q1022

Hora: 17:39 (15:39 UTC)

Pronóstico

El informe se hizo hace 1 hora y 39 minutos, a las 14:00 UTC
Pronóstico válido del 17 a las 15 UTC al 17 a las 24 UTC
Viento 10 kt del oeste-noroeste
Visibilidad 10 km o más
Cielo nuboso a una altura de 4500 ft
Probabilidad 30% :
Temporalmente
del 17 a las 15 UTC al 17 a las 18 UTC
Escasas nubes a una altura de 4000 ft, Cumulus congestus.

TAF: LELO 171400Z 1715/1724 30010KT 9999 BKN045 PROB30 TEMPO 1715/1718 FEW040TCU

Observaciones y pronósticos meteorológicos de más de 4000 aeropuertos (mensajes METAR y TAF).

Los puntos amarillos y rojos representan las estaciones disponibles.

Ponga el ratón en el punto deseado para ver el nombre de la estación.

Haga clic para ver las observaciones y los pronósticos meteorológicos.

Para cambiar el mapa : haga clic en los botones verdes con una cruz de color negro para hacer un zoom, en el botón verde con un guión para alejar o en las flechas verdes para mapas adyacentes.


METAR-TAF: